Time;durP1;ratioP1;P1;durP2;ratioP2;P2;SDS_P1;SDS_P2;PMS_P1;PMS_P2;Temp;Humidity;BMP_temperature;BMP_pressure;BME280_temperature;BME280_humidity;BME280_pressure;Samples;Min_cycle;Max_cycle;Signal;HPM_P1;HPM_P2
2023/01/27 00:00:55;;;;;;;20.85;3.42;;;;;;;3.70;100.00;102417.69;5033553;28;20017;-58
2023/01/27 00:03:21;;;;;;;15.52;2.97;;;;;;;3.69;100.00;102418.56;5027638;28;20128;-54
2023/01/27 00:05:46;;;;;;;14.05;3.25;;;;;;;3.69;100.00;102415.09;5032347;28;20056;-56
2023/01/27 00:08:12;;;;;;;14.65;3.17;;;;;;;3.68;100.00;102414.25;5031791;28;20047;-57
2023/01/27 00:10:37;;;;;;;15.07;3.50;;;;;;;3.67;100.00;102409.03;5026336;28;20049;-59
2023/01/27 00:15:47;;;;;;;7.78;2.80;;;;;;;3.66;100.00;102410.78;5027740;28;20039;-57
2023/01/27 00:18:12;;;;;;;11.98;3.22;;;;;;;3.64;100.00;102411.72;5028378;28;20454;-56
2023/01/27 00:26:16;;;;;;;11.15;3.08;;;;;;;3.61;100.00;102407.38;5029224;28;20037;-57
2023/01/27 00:28:43;;;;;;;15.05;3.15;;;;;;;3.61;100.00;102404.75;5031997;28;20045;-57
2023/01/27 00:34:00;;;;;;;13.75;2.97;;;;;;;3.58;100.00;102410.09;5028250;28;20503;-57
2023/01/27 00:36:26;;;;;;;12.48;3.50;;;;;;;3.57;100.00;102412.75;5031496;28;20119;-57
2023/01/27 00:38:51;;;;;;;11.40;3.38;;;;;;;3.56;100.00;102403.13;5020577;28;20495;-58
2023/01/27 00:41:19;;;;;;;16.73;3.55;;;;;;;3.55;100.00;102409.28;5031612;28;20026;-57
2023/01/27 00:43:49;;;;;;;16.77;3.10;;;;;;;3.54;100.00;102418.06;5031435;28;20054;-56
2023/01/27 00:46:16;;;;;;;12.38;2.70;;;;;;;3.50;100.00;102412.88;5026693;28;20029;-56
2023/01/27 00:48:42;;;;;;;12.45;3.17;;;;;;;3.49;100.00;102407.66;5033315;28;20399;-58
2023/01/27 00:51:08;;;;;;;20.05;3.30;;;;;;;3.48;100.00;102425.19;5019250;28;20041;-56
2023/01/27 00:53:34;;;;;;;15.23;3.05;;;;;;;3.46;100.00;102418.22;5027034;28;20029;-57
2023/01/27 00:55:59;;;;;;;12.77;3.03;;;;;;;3.46;100.00;102416.44;5031368;28;20027;-56
2023/01/27 00:58:25;;;;;;;15.10;3.97;;;;;;;3.45;100.00;102422.63;5031184;28;20025;-55
2023/01/27 01:00:58;;;;;;;10.63;3.20;;;;;;;3.43;100.00;102427.06;5029974;28;20029;-57
2023/01/27 01:03:24;;;;;;;12.18;3.22;;;;;;;3.43;100.00;102426.16;5031058;28;20071;-57
2023/01/27 01:05:49;;;;;;;13.15;3.17;;;;;;;3.41;100.00;102422.72;5032966;28;20045;-57
2023/01/27 01:08:14;;;;;;;11.07;3.30;;;;;;;3.40;100.00;102423.59;5029702;28;20033;-56
2023/01/27 01:10:40;;;;;;;10.45;3.45;;;;;;;3.39;100.00;102425.38;5031524;28;20029;-54
2023/01/27 01:13:11;;;;;;;15.45;3.75;;;;;;;3.39;100.00;102421.88;5031190;28;20067;-56
2023/01/27 01:15:38;;;;;;;13.18;3.92;;;;;;;3.38;100.00;102417.53;5027813;28;20053;-57
2023/01/27 01:18:04;;;;;;;12.02;3.50;;;;;;;3.35;100.00;102428.97;5027673;28;20501;-56
2023/01/27 01:20:29;;;;;;;17.75;3.42;;;;;;;3.34;100.00;102428.09;5029226;28;20034;-58
2023/01/27 01:22:56;;;;;;;12.77;3.92;;;;;;;3.33;100.00;102436.00;5031396;28;20063;-57
2023/01/27 01:25:21;;;;;;;12.68;3.67;;;;;;;3.31;100.00;102436.06;5032334;28;20049;-56
2023/01/27 01:27:46;;;;;;;9.80;3.78;;;;;;;3.31;100.00;102432.53;5034995;28;20061;-55
2023/01/27 01:30:12;;;;;;;13.35;3.63;;;;;;;3.31;100.00;102441.31;5030001;28;20460;-57
2023/01/27 01:32:37;;;;;;;11.07;3.65;;;;;;;3.29;100.00;102437.81;5027363;28;20087;-57
2023/01/27 01:35:02;;;;;;;15.60;4.28;;;;;;;3.31;100.00;102435.16;5028420;28;20520;-56
2023/01/27 01:37:28;;;;;;;19.95;4.00;;;;;;;3.28;100.00;102429.97;5034810;28;20034;-55
2023/01/27 01:39:53;;;;;;;16.25;3.88;;;;;;;3.27;100.00;102438.78;5033518;28;20026;-57
2023/01/27 01:42:18;;;;;;;14.43;3.92;;;;;;;3.24;100.00;102444.06;5016621;28;20045;-55
2023/01/27 01:44:46;;;;;;;12.98;3.92;;;;;;;3.23;100.00;102444.97;5034449;28;20021;-55
2023/01/27 01:47:16;;;;;;;17.92;4.47;;;;;;;3.22;100.00;102443.25;5023414;28;20056;-57
2023/01/27 01:49:44;;;;;;;13.15;4.10;;;;;;;3.20;100.00;102443.28;5023686;28;20038;-57
2023/01/27 01:52:15;;;;;;;17.65;4.30;;;;;;;3.20;100.00;102443.28;5038033;28;20072;-57
2023/01/27 01:54:54;;;;;;;9.73;4.18;;;;;;;3.20;100.00;102440.66;5034580;28;20091;-57
2023/01/27 01:57:26;;;;;;;13.27;4.15;;;;;;;3.17;100.00;102443.34;5023107;28;20112;-55
2023/01/27 01:59:57;;;;;;;12.85;4.43;;;;;;;3.17;100.00;102443.34;5034449;28;20365;-57
2023/01/27 02:02:23;;;;;;;12.18;4.25;;;;;;;3.17;100.00;102447.72;5033590;28;20037;-58
2023/01/27 02:04:55;;;;;;;14.27;4.30;;;;;;;3.14;100.00;102438.13;5034499;28;20083;-57
2023/01/27 02:07:30;;;;;;;16.92;5.03;;;;;;;3.15;100.00;102437.25;5034033;28;20037;-58
2023/01/27 02:09:57;;;;;;;10.18;4.07;;;;;;;3.11;100.00;102441.72;5025463;28;20037;-58
2023/01/27 02:12:22;;;;;;;13.95;4.25;;;;;;;3.11;100.00;102451.31;5041212;28;20033;-58
2023/01/27 02:14:48;;;;;;;11.05;4.32;;;;;;;3.10;100.00;102444.38;5029182;28;20117;-58
2023/01/27 02:17:14;;;;;;;11.52;4.32;;;;;;;3.08;100.00;102441.75;5037478;28;20060;-56
2023/01/27 02:20:02;;;;;;;11.65;4.10;;;;;;;3.08;100.00;102439.13;5036679;28;20460;-58
2023/01/27 02:23:21;;;;;;;9.60;4.30;;;;;;;3.10;100.00;102447.00;5028732;28;20033;-57
2023/01/27 02:25:52;;;;;;;11.73;4.53;;;;;;;3.06;100.00;102451.41;4973770;28;20075;-57
2023/01/27 02:28:17;;;;;;;15.18;4.57;;;;;;;3.03;100.00;102446.25;5031579;28;20037;-55
2023/01/27 02:30:43;;;;;;;7.30;4.15;;;;;;;3.03;100.00;102448.88;5032991;28;20025;-56
2023/01/27 02:33:13;;;;;;;12.85;4.47;;;;;;;3.03;100.00;102453.22;5033299;28;20033;-58
2023/01/27 02:35:47;;;;;;;10.50;4.32;;;;;;;3.01;100.00;102450.63;5034105;28;20183;-56
2023/01/27 02:38:14;;;;;;;12.00;4.32;;;;;;;3.02;100.00;102454.16;5033321;28;20033;-58
2023/01/27 02:40:40;;;;;;;10.48;4.55;;;;;;;3.00;100.00;102459.41;5029757;28;20033;-57
2023/01/27 02:43:06;;;;;;;13.50;4.72;;;;;;;3.01;100.00;102462.91;5033134;28;20068;-58
2023/01/27 02:45:31;;;;;;;12.68;4.43;;;;;;;3.00;100.00;102463.78;5030120;28;20482;-54
2023/01/27 02:47:56;;;;;;;15.15;4.20;;;;;;;3.00;100.00;102464.66;5033466;28;20076;-58
2023/01/27 02:50:22;;;;;;;10.77;4.97;;;;;;;3.00;100.00;102461.16;5029211;28;20030;-56
2023/01/27 02:52:47;;;;;;;7.95;4.20;;;;;;;2.99;100.00;102465.56;5033109;28;20021;-58
2023/01/27 02:55:12;;;;;;;12.25;4.55;;;;;;;2.97;100.00;102460.31;5032768;28;20033;-57
2023/01/27 02:57:38;;;;;;;11.77;4.95;;;;;;;2.97;100.00;102459.47;5037287;28;20111;-55
2023/01/27 03:00:03;;;;;;;10.73;4.95;;;;;;;2.96;100.00;102460.34;5038339;28;20025;-58
2023/01/27 03:02:29;;;;;;;10.70;5.00;;;;;;;2.96;100.00;102460.34;5032354;28;20025;-56
2023/01/27 03:04:57;;;;;;;14.02;5.57;;;;;;;2.95;100.00;102461.28;5033421;28;20453;-55
2023/01/27 03:07:23;;;;;;;15.48;5.38;;;;;;;2.94;100.00;102454.28;5031693;28;20038;-57
2023/01/27 03:09:48;;;;;;;12.80;5.10;;;;;;;2.94;100.00;102467.41;5032760;28;20037;-56
2023/01/27 03:12:19;;;;;;;11.35;5.28;;;;;;;2.93;100.00;102473.53;5033297;28;20112;-57
2023/01/27 03:20:14;;;;;;;15.82;6.93;;;;;;;2.92;100.00;102463.94;5030069;28;20454;-58
2023/01/27 03:22:39;;;;;;;12.73;6.75;;;;;;;2.90;100.00;102473.63;5032636;28;20030;-56
2023/01/27 03:25:05;;;;;;;17.00;6.72;;;;;;;2.90;100.00;102471.00;5032300;28;20022;-57
2023/01/27 03:27:30;;;;;;;14.80;7.10;;;;;;;2.88;100.00;102473.63;5024395;28;20041;-57
2023/01/27 03:29:56;;;;;;;13.20;6.97;;;;;;;2.87;100.00;102474.53;5031331;28;20523;-54
2023/01/27 03:32:23;;;;;;;13.35;5.95;;;;;;;2.85;100.00;102473.69;5032592;28;20025;-57
2023/01/27 03:34:48;;;;;;;14.23;7.20;;;;;;;2.85;100.00;102478.94;5040505;28;20031;-58
2023/01/27 03:48:11;;;;;;;18.40;7.95;;;;;;;2.84;100.00;102489.47;5026485;28;20053;-56
2023/01/27 03:50:36;;;;;;;18.58;7.78;;;;;;;2.83;100.00;102498.22;5028594;28;20033;-54
2023/01/27 03:53:03;;;;;;;14.15;8.10;;;;;;;2.82;100.00;102494.72;5024115;28;20049;-56
2023/01/27 03:55:33;;;;;;;18.50;8.93;;;;;;;2.83;100.00;102491.22;5031956;28;20489;-56
2023/01/27 03:58:17;;;;;;;19.45;8.80;;;;;;;2.83;100.00;102492.97;5031967;28;20025;-55
2023/01/27 04:00:43;;;;;;;15.48;8.75;;;;;;;2.81;100.00;102495.63;5028758;28;20395;-57
2023/01/27 04:08:36;;;;;;;19.98;9.32;;;;;;;2.81;100.00;102503.47;5031464;28;20387;-57
2023/01/27 04:13:46;;;;;;;21.67;9.57;;;;;;;2.81;100.00;102505.25;5031705;28;20036;-57
2023/01/27 04:16:11;;;;;;;17.75;8.65;;;;;;;2.81;100.00;102497.38;5021367;28;20026;-57
2023/01/27 04:18:37;;;;;;;22.35;10.32;;;;;;;2.81;100.00;102497.38;5031481;28;20025;-57
2023/01/27 04:21:03;;;;;;;17.45;9.82;;;;;;;2.79;100.00;102489.53;5031813;28;20022;-57
2023/01/27 04:23:28;;;;;;;16.27;9.82;;;;;;;2.77;100.00;102489.56;5031575;28;20080;-57
2023/01/27 04:25:55;;;;;;;19.88;11.07;;;;;;;2.76;100.00;102490.47;5022104;28;20472;-57
2023/01/27 04:28:20;;;;;;;20.30;9.93;;;;;;;2.77;100.00;102493.94;5030826;28;20076;-58
2023/01/27 04:30:46;;;;;;;21.67;10.48;;;;;;;2.77;100.00;102496.56;5029327;28;20034;-57
2023/01/27 04:33:14;;;;;;;18.20;10.05;;;;;;;2.76;100.00;102495.72;5030761;28;20037;-56
2023/01/27 04:35:43;;;;;;;22.50;11.02;;;;;;;2.76;100.00;102492.22;5031474;28;20025;-57
2023/01/27 04:38:08;;;;;;;;;;;;;;;2.82;100.00;102501.75;5032145;28;20029;-57
2023/01/27 04:40:34;;;;;;;20.03;10.17;;;;;;;2.77;100.00;102497.44;5023714;28;19909;-57
2023/01/27 04:42:59;;;;;;;22.20;11.00;;;;;;;2.77;100.00;102505.31;5030899;28;20342;-57
2023/01/27 04:45:24;;;;;;;20.73;10.57;;;;;;;2.77;100.00;102505.31;5028272;28;20030;-56
2023/01/27 04:47:49;;;;;;;19.70;11.25;;;;;;;2.77;100.00;102501.81;5031062;28;20044;-57
2023/01/27 04:50:15;;;;;;;22.58;12.05;;;;;;;2.75;100.00;102504.47;5034357;28;20471;-57
2023/01/27 04:52:40;;;;;;;21.95;12.02;;;;;;;2.76;100.00;102518.44;5031321;28;20460;-56
2023/01/27 04:55:06;;;;;;;22.77;13.18;;;;;;;2.76;100.00;102514.09;5022276;28;20041;-56
2023/01/27 04:57:31;;;;;;;22.52;13.35;;;;;;;2.76;100.00;102518.44;5030549;28;20021;-57
2023/01/27 04:59:56;;;;;;;19.60;12.57;;;;;;;2.75;100.00;102525.47;5032003;28;20113;-57
2023/01/27 05:02:22;;;;;;;22.00;12.50;;;;;;;2.75;100.00;102525.47;5031166;28;20033;-55
2023/01/27 05:04:47;;;;;;;20.02;12.45;;;;;;;2.75;100.00;102508.88;5027800;28;20138;-57
2023/01/27 05:07:12;;;;;;;20.90;13.57;;;;;;;2.76;100.00;102521.06;5044664;28;20025;-55
2023/01/27 05:09:37;;;;;;;18.17;12.60;;;;;;;2.76;100.00;102515.81;5035342;28;20025;-57
2023/01/27 05:12:03;;;;;;;21.00;13.05;;;;;;;2.75;100.00;102528.09;5034822;28;20395;-57
2023/01/27 05:14:28;;;;;;;20.50;12.75;;;;;;;2.75;100.00;102528.09;5034550;28;20096;-57
2023/01/27 05:16:54;;;;;;;19.25;13.35;;;;;;;2.76;100.00;102531.56;5033781;28;20116;-57
2023/01/27 05:19:19;;;;;;;18.92;13.30;;;;;;;2.75;100.00;102529.84;5035212;28;20029;-55
2023/01/27 05:21:44;;;;;;;24.15;13.63;;;;;;;2.73;100.00;102535.13;5034788;28;20110;-57
2023/01/27 05:24:10;;;;;;;20.98;12.65;;;;;;;2.74;100.00;102542.09;5033151;28;20038;-57
2023/01/27 05:26:35;;;;;;;19.83;12.80;;;;;;;2.73;100.00;102543.00;5033258;28;20030;-55
2023/01/27 05:29:00;;;;;;;19.83;12.20;;;;;;;2.73;100.00;102542.09;5034748;28;20104;-55
2023/01/27 05:31:30;;;;;;;19.63;12.82;;;;;;;2.72;100.00;102549.13;5034594;28;20048;-55
2023/01/27 05:33:58;;;;;;;18.30;13.40;;;;;;;2.73;100.00;102552.59;5031470;28;20041;-55
2023/01/27 05:36:24;;;;;;;19.63;13.68;;;;;;;2.72;100.00;102553.50;5033512;28;20018;-54
2023/01/27 05:38:50;;;;;;;18.02;13.00;;;;;;;2.73;100.00;102553.50;5027295;28;20026;-56
2023/01/27 05:41:17;;;;;;;18.77;12.95;;;;;;;2.71;100.00;102550.00;5034394;28;20368;-57
2023/01/27 05:43:44;;;;;;;19.65;12.85;;;;;;;2.73;100.00;102553.50;5034993;28;20041;-57
2023/01/27 05:46:19;;;;;;;19.52;13.10;;;;;;;2.73;100.00;102556.13;5032263;28;20083;-58
2023/01/27 05:48:49;;;;;;;20.40;13.18;;;;;;;2.74;100.00;102560.44;5028044;28;20036;-59
2023/01/27 05:51:16;;;;;;;19.38;12.77;;;;;;;2.73;100.00;102556.13;5031376;28;20041;-56
2023/01/27 05:53:42;;;;;;;19.80;13.63;;;;;;;2.74;100.00;102567.47;5033055;28;20030;-57
2023/01/27 05:56:13;;;;;;;16.33;12.13;;;;;;;2.74;100.00;102564.84;5034131;28;20026;-57
2023/01/27 05:58:39;;;;;;;16.30;12.68;;;;;;;2.72;100.00;102559.63;5035119;28;20033;-57
2023/01/27 06:01:07;;;;;;;16.70;12.50;;;;;;;2.73;100.00;102569.22;5029692;28;20495;-57
2023/01/27 06:03:32;;;;;;;16.55;11.88;;;;;;;2.73;100.00;102569.22;5029880;28;20056;-56
2023/01/27 06:05:58;;;;;;;17.85;12.65;;;;;;;2.74;100.00;102568.31;5030800;28;20132;-57
2023/01/27 06:08:25;;;;;;;15.93;12.40;;;;;;;2.74;100.00;102570.09;5036555;28;20025;-57
2023/01/27 06:10:51;;;;;;;17.35;11.65;;;;;;;2.74;100.00;102572.72;5027907;28;20096;-57
2023/01/27 06:13:17;;;;;;;17.67;12.23;;;;;;;2.75;100.00;102574.47;5033980;28;20032;-56
2023/01/27 06:15:44;;;;;;;13.88;11.45;;;;;;;2.75;100.00;102577.09;5027243;28;20029;-56
2023/01/27 06:18:10;;;;;;;15.43;11.95;;;;;;;2.76;100.00;102573.53;5034145;28;20447;-56
2023/01/27 06:20:36;;;;;;;13.60;11.77;;;;;;;2.76;100.00;102571.81;5025021;28;20033;-57
2023/01/27 06:23:02;;;;;;;14.52;11.20;;;;;;;2.77;100.00;102577.91;5033835;28;20506;-58
2023/01/27 06:25:27;;;;;;;16.02;12.02;;;;;;;2.76;100.00;102578.78;5033757;28;20021;-57
2023/01/27 06:27:53;;;;;;;16.65;11.63;;;;;;;2.76;100.00;102582.31;5031905;28;20037;-58
2023/01/27 06:30:19;;;;;;;15.25;11.88;;;;;;;2.76;100.00;102579.69;5033630;28;20436;-58
2023/01/27 06:32:44;;;;;;;15.27;11.57;;;;;;;2.76;100.00;102590.19;5034022;28;20091;-57
2023/01/27 06:35:09;;;;;;;17.48;12.88;;;;;;;2.76;100.00;102592.81;5033488;28;20069;-58
2023/01/27 06:37:35;;;;;;;16.63;11.90;;;;;;;2.77;100.00;102584.03;5024529;28;20041;-57
2023/01/27 06:40:01;;;;;;;14.40;10.43;;;;;;;2.77;100.00;102596.28;5033738;28;20380;-57
2023/01/27 06:42:26;;;;;;;15.50;10.98;;;;;;;2.78;100.00;102591.00;5033381;28;20479;-58
2023/01/27 06:44:51;;;;;;;14.98;10.27;;;;;;;2.80;100.00;102592.72;5025019;28;20079;-58
2023/01/27 06:47:16;;;;;;;12.88;10.10;;;;;;;2.81;100.00;102597.09;5033363;28;20039;-57
2023/01/27 06:49:42;;;;;;;12.13;9.90;;;;;;;2.82;100.00;102589.19;5031935;28;20079;-57
2023/01/27 06:52:07;;;;;;;15.23;10.48;;;;;;;2.81;100.00;102591.84;5033549;28;20029;-57
2023/01/27 06:54:32;;;;;;;13.02;10.85;;;;;;;2.80;100.00;102591.00;5032298;28;20088;-58
2023/01/27 06:56:58;;;;;;;15.98;10.77;;;;;;;2.81;100.00;102591.84;5022864;28;20121;-57
2023/01/27 06:59:23;;;;;;;13.32;10.63;;;;;;;2.81;100.00;102594.47;5029283;28;20116;-57
2023/01/27 07:01:48;;;;;;;14.05;10.48;;;;;;;2.80;100.00;102596.25;5030730;28;20025;-56
2023/01/27 07:04:13;;;;;;;11.55;10.00;;;;;;;2.82;100.00;102590.97;5030964;28;20035;-56
2023/01/27 07:06:39;;;;;;;12.25;10.32;;;;;;;2.81;100.00;102595.31;5031630;28;20029;-57
2023/01/27 07:09:04;;;;;;;11.90;9.80;;;;;;;2.81;100.00;102592.69;5024172;28;20034;-57
2023/01/27 07:11:30;;;;;;;13.60;10.05;;;;;;;2.82;100.00;102599.69;5034811;28;20037;-54
2023/01/27 07:13:55;;;;;;;12.30;9.65;;;;;;;2.82;100.00;102599.69;5031747;28;20045;-56
2023/01/27 07:16:20;;;;;;;11.85;9.48;;;;;;;2.83;100.00;102601.44;5027859;28;20493;-57
2023/01/27 07:18:46;;;;;;;11.55;9.23;;;;;;;2.83;100.00;102597.94;5022455;28;20056;-56
2023/01/27 07:21:11;;;;;;;11.57;9.77;;;;;;;2.82;100.00;102588.34;5017706;28;20112;-54
2023/01/27 07:23:36;;;;;;;10.23;8.73;;;;;;;2.83;100.00;102597.94;5014229;28;20454;-58
2023/01/27 07:26:02;;;;;;;10.73;8.63;;;;;;;2.82;100.00;102599.69;5013158;28;20026;-58
2023/01/27 07:28:27;;;;;;;10.35;8.70;;;;;;;2.83;100.00;102606.69;5018626;28;20045;-58
2023/01/27 07:30:53;;;;;;;10.25;8.25;;;;;;;2.83;100.00;102601.44;5019102;28;20025;-56
2023/01/27 07:33:18;;;;;;;9.80;7.93;;;;;;;2.84;100.00;102603.16;5019855;28;20396;-59
2023/01/27 07:35:48;;;;;;;8.38;7.55;;;;;;;2.84;100.00;102603.16;5015237;28;20094;-58
2023/01/27 07:38:14;;;;;;;10.90;7.63;;;;;;;2.84;100.00;102608.41;5019973;28;20076;-57
2023/01/27 07:40:39;;;;;;;9.70;7.97;;;;;;;2.84;100.00;102603.16;5015849;28;20061;-58
2023/01/27 07:43:05;;;;;;;9.85;7.60;;;;;;;2.85;100.00;102610.16;5017089;28;20056;-57
2023/01/27 07:45:30;;;;;;;8.40;7.32;;;;;;;2.85;100.00;102611.88;5020601;28;20033;-58
2023/01/27 07:48:06;;;;;;;8.38;7.22;;;;;;;2.86;100.00;102616.25;5030405;28;20045;-57
2023/01/27 07:50:32;;;;;;;9.73;7.40;;;;;;;2.86;100.00;102608.38;5023455;28;20053;-57
2023/01/27 07:52:59;;;;;;;7.22;6.55;;;;;;;2.86;100.00;102617.13;5030814;28;20065;-57
2023/01/27 07:55:24;;;;;;;9.07;6.60;;;;;;;2.88;100.00;102627.59;5029981;28;20026;-58
2023/01/27 07:57:52;;;;;;;7.55;6.75;;;;;;;2.88;100.00;102628.47;5028506;28;20380;-56
2023/01/27 08:00:20;;;;;;;9.35;6.65;;;;;;;2.89;100.00;102624.09;5014975;28;20437;-58
2023/01/27 08:02:49;;;;;;;8.50;6.70;;;;;;;2.90;100.00;102615.34;5017940;28;20084;-56
2023/01/27 08:05:15;;;;;;;8.05;6.88;;;;;;;2.91;100.00;102624.91;5019133;28;20064;-56
2023/01/27 08:07:40;;;;;;;7.13;6.43;;;;;;;2.92;100.00;102629.28;5026821;28;20057;-57
2023/01/27 08:10:05;;;;;;;7.63;6.57;;;;;;;2.92;100.00;102617.03;5030665;28;20025;-58
2023/01/27 08:12:31;;;;;;;8.95;6.63;;;;;;;2.93;100.00;102623.13;5028128;28;20525;-57
2023/01/27 08:14:56;;;;;;;7.82;6.57;;;;;;;2.93;100.00;102621.41;5024780;28;20535;-58
2023/01/27 08:17:21;;;;;;;8.13;6.85;;;;;;;2.95;100.00;102629.25;5016675;28;20028;-57
2023/01/27 08:19:49;;;;;;;7.90;6.65;;;;;;;2.95;100.00;102629.25;5018192;28;20037;-56
2023/01/27 08:22:18;;;;;;;9.27;7.50;;;;;;;2.96;100.00;102630.97;5029674;28;20037;-59
2023/01/27 08:24:43;;;;;;;8.23;6.90;;;;;;;2.96;100.00;102630.97;5022196;28;20041;-57
2023/01/27 08:27:09;;;;;;;9.70;7.32;;;;;;;2.99;100.00;102630.91;5028042;28;20018;-54
2023/01/27 08:29:34;;;;;;;7.95;7.15;;;;;;;2.99;100.00;102636.16;5018159;28;20447;-55
2023/01/27 08:31:59;;;;;;;9.07;7.45;;;;;;;3.00;100.00;102631.78;5026555;28;20041;-58
2023/01/27 08:34:24;;;;;;;9.57;7.55;;;;;;;3.00;100.00;102640.53;5028326;28;20495;-56
2023/01/27 08:36:50;;;;;;;9.93;7.60;;;;;;;3.00;100.00;102634.41;5033075;28;20025;-57
2023/01/27 08:39:15;;;;;;;9.77;7.47;;;;;;;3.01;100.00;102641.41;5034429;28;20491;-57
2023/01/27 08:41:40;;;;;;;10.20;8.05;;;;;;;3.01;100.00;102642.25;5033103;28;20026;-57
2023/01/27 08:44:06;;;;;;;8.00;6.57;;;;;;;3.02;100.00;102651.88;5031926;28;20049;-58
2023/01/27 08:46:33;;;;;;;8.02;7.07;;;;;;;3.03;100.00;102648.38;5029928;28;20132;-57
2023/01/27 08:48:58;;;;;;;11.82;8.30;;;;;;;3.04;100.00;102649.22;5032404;28;20145;-56
2023/01/27 08:51:23;;;;;;;12.77;8.38;;;;;;;3.05;100.00;102650.94;5033649;28;20036;-55
2023/01/27 08:53:49;;;;;;;10.68;7.82;;;;;;;3.07;100.00;102657.06;5023963;28;20057;-58
2023/01/27 08:56:14;;;;;;;11.25;8.00;;;;;;;3.07;100.00;102662.31;5032995;28;20044;-58
2023/01/27 08:58:40;;;;;;;13.15;9.20;;;;;;;3.08;100.00;102667.53;5031484;28;20060;-57
2023/01/27 09:01:07;;;;;;;11.55;8.80;;;;;;;3.09;100.00;102665.78;5020696;28;20026;-57
2023/01/27 09:03:34;;;;;;;10.43;8.48;;;;;;;3.09;100.00;102666.63;5031826;28;20463;-56
2023/01/27 09:06:00;;;;;;;8.02;6.65;;;;;;;3.10;100.00;102667.50;5033773;28;20060;-58
2023/01/27 09:08:26;;;;;;;8.00;6.75;;;;;;;3.11;100.00;102678.00;5027905;28;20050;-57
2023/01/27 09:10:52;;;;;;;7.72;6.97;;;;;;;3.12;100.00;102679.72;5031118;28;20094;-58
2023/01/27 09:13:17;;;;;;;9.32;6.53;;;;;;;3.13;100.00;102680.56;5031402;28;20746;-58
2023/01/27 09:15:43;;;;;;;7.47;6.63;;;;;;;3.15;100.00;102678.81;5032540;28;20586;-57
2023/01/27 09:18:09;;;;;;;7.07;6.43;;;;;;;3.15;100.00;102677.03;5031686;28;20022;-57
2023/01/27 09:20:36;;;;;;;6.95;6.22;;;;;;;3.15;100.00;102679.66;5033412;28;20103;-55
2023/01/27 09:23:02;;;;;;;8.52;6.07;;;;;;;3.18;100.00;102677.88;5028578;28;20168;-58
2023/01/27 09:25:27;;;;;;;6.97;6.25;;;;;;;3.19;100.00;102680.47;5032974;28;20048;-58
2023/01/27 09:27:54;;;;;;;7.60;5.80;;;;;;;3.20;100.00;102682.22;5027236;28;20010;-58
2023/01/27 09:30:20;;;;;;;8.95;5.88;;;;;;;3.22;99.92;102671.69;5033097;28;20065;-58
2023/01/27 09:32:45;;;;;;;6.55;5.72;;;;;;;3.26;99.65;102684.72;5031624;28;20107;-56
2023/01/27 09:35:11;;;;;;;6.82;6.18;;;;;;;3.27;100.00;102681.22;5032034;28;20060;-58
2023/01/27 09:37:57;;;;;;;6.57;5.88;;;;;;;3.33;100.00;102688.13;5031535;28;20018;-57
2023/01/27 09:41:14;;;;;;;8.43;5.65;;;;;;;3.37;100.00;102694.22;5033330;28;20559;-56
2023/01/27 09:44:16;;;;;;;6.75;5.85;;;;;;;3.38;99.88;102691.56;4996674;28;20041;-58
2023/01/27 09:47:02;;;;;;;6.43;5.30;;;;;;;3.41;99.41;102691.50;5014896;28;20042;-58
2023/01/27 09:49:39;;;;;;;5.85;5.35;;;;;;;3.42;99.27;102687.97;5027558;28;20518;-55
2023/01/27 09:52:39;;;;;;;5.72;5.13;;;;;;;3.44;98.88;102691.44;5027094;28;20101;-58
2023/01/27 09:55:13;;;;;;;7.75;5.30;;;;;;;3.44;98.10;102696.69;5018266;28;20040;-57
2023/01/27 09:57:55;;;;;;;7.20;5.90;;;;;;;3.45;97.86;102706.31;5020548;28;20157;-56
2023/01/27 10:00:30;;;;;;;5.90;5.30;;;;;;;3.44;98.28;102698.47;5015509;28;20044;-56
2023/01/27 10:03:17;;;;;;;5.50;5.00;;;;;;;3.46;97.53;102699.28;5016919;28;20033;-57
2023/01/27 10:05:54;;;;;;;6.22;5.63;;;;;;;3.45;98.15;102697.59;5016948;28;20037;-57
2023/01/27 10:08:40;;;;;;;6.60;5.50;;;;;;;3.47;98.00;102703.66;5016594;28;20080;-57
2023/01/27 10:11:16;;;;;;;6.57;5.35;;;;;;;3.45;97.01;102711.56;5022017;28;20034;-58
2023/01/27 10:14:08;;;;;;;6.20;5.60;;;;;;;3.45;97.52;102703.69;5033455;28;20391;-57
2023/01/27 10:16:40;;;;;;;5.88;4.95;;;;;;;3.45;96.45;102706.31;5052446;28;20029;-57
2023/01/27 10:19:49;;;;;;;5.70;5.20;;;;;;;3.48;97.03;102708.00;5033898;28;20111;-57
2023/01/27 10:22:35;;;;;;;7.53;5.38;;;;;;;3.47;96.67;102712.41;5003285;28;20546;-58
2023/01/27 10:25:34;;;;;;;5.85;5.25;;;;;;;3.49;97.29;102710.63;5036742;28;20033;-58
2023/01/27 10:28:09;;;;;;;;;;;;;;;3.57;98.02;102699.13;5032139;28;20110;-57
2023/01/27 10:30:36;;;;;;;5.70;5.10;;;;;;;3.55;97.01;102700.91;5025784;28;19917;-58
2023/01/27 10:33:09;;;;;;;6.22;5.30;;;;;;;3.58;97.78;102700.84;5028665;28;20132;-56
2023/01/27 10:35:48;;;;;;;6.35;5.50;;;;;;;3.63;97.21;102699.00;5023167;28;20082;-58
2023/01/27 10:38:25;;;;;;;7.68;5.63;;;;;;;3.66;97.22;102699.84;5030447;28;20034;-57
2023/01/27 10:41:10;;;;;;;6.30;5.18;;;;;;;3.68;96.33;102702.41;5038601;28;20076;-55
2023/01/27 10:44:12;;;;;;;5.78;5.15;;;;;;;3.73;96.69;102692.72;5031049;28;20523;-56
2023/01/27 10:47:06;;;;;;;6.22;5.35;;;;;;;3.74;95.82;102696.19;5028776;28;20033;-58
2023/01/27 10:49:39;;;;;;;6.85;5.35;;;;;;;3.75;95.33;102693.53;5027387;28;20030;-57
2023/01/27 10:52:14;;;;;;;7.15;5.47;;;;;;;3.78;95.54;102704.00;5021297;28;20025;-57
2023/01/27 10:54:52;;;;;;;6.32;5.72;;;;;;;3.81;95.28;102698.66;5013086;28;20026;-57
2023/01/27 10:57:29;;;;;;;8.00;6.68;;;;;;;3.79;94.79;102687.31;5015991;28;20097;-57
2023/01/27 11:00:13;;;;;;;6.25;5.75;;;;;;;3.81;95.46;102688.16;5015413;28;20025;-57
2023/01/27 11:02:44;;;;;;;6.28;5.68;;;;;;;3.82;95.17;102686.41;5021251;28;20025;-56
2023/01/27 11:05:21;;;;;;;5.90;5.30;;;;;;;3.84;95.31;102690.72;5015034;28;20049;-58
2023/01/27 11:07:55;;;;;;;6.05;5.40;;;;;;;3.84;94.93;102688.09;5028507;28;20037;-57
2023/01/27 11:10:24;;;;;;;6.60;5.85;;;;;;;3.85;95.50;102681.97;5032253;28;20445;-57
2023/01/27 11:12:54;;;;;;;5.72;5.22;;;;;;;3.87;94.28;102688.06;5030586;28;20141;-56
2023/01/27 11:15:28;;;;;;;5.72;5.22;;;;;;;3.87;95.13;102680.16;5032353;28;20033;-57
2023/01/27 11:18:09;;;;;;;5.72;5.22;;;;;;;3.87;94.82;102682.78;5031438;28;20041;-55
2023/01/27 11:20:41;;;;;;;6.18;5.60;;;;;;;3.86;94.28;102686.34;5022854;28;20056;-58
2023/01/27 11:23:26;;;;;;;6.07;5.20;;;;;;;3.84;94.21;102693.34;5031683;28;20030;-57
2023/01/27 11:26:19;;;;;;;4.90;4.47;;;;;;;3.84;94.53;102688.09;5032392;28;20076;-56
2023/01/27 11:28:50;;;;;;;6.35;4.97;;;;;;;3.79;94.05;102686.47;5020927;28;20041;-56
2023/01/27 11:31:36;;;;;;;5.32;4.55;;;;;;;3.79;94.05;102692.56;5030713;28;20033;-55
2023/01/27 11:34:09;;;;;;;6.00;5.07;;;;;;;3.76;94.19;102686.50;5023938;28;20042;-54
2023/01/27 11:36:34;;;;;;;5.65;4.95;;;;;;;3.75;94.52;102690.91;5030644;28;20053;-55
2023/01/27 11:39:03;;;;;;;5.70;5.20;;;;;;;3.74;95.05;102686.53;5028775;28;20053;-57
2023/01/27 11:41:32;;;;;;;7.18;5.32;;;;;;;3.75;95.09;102688.28;5030868;28;20036;-54
2023/01/27 11:44:03;;;;;;;6.57;5.63;;;;;;;3.76;94.84;102691.78;5030699;28;20053;-57
2023/01/27 11:46:30;;;;;;;5.90;5.40;;;;;;;3.77;94.58;102689.13;5028980;28;20037;-57
2023/01/27 11:48:57;;;;;;;5.65;5.15;;;;;;;3.79;95.30;102683.84;5025622;28;20045;-57
2023/01/27 11:51:38;;;;;;;5.78;5.18;;;;;;;3.84;96.05;102671.47;5032276;28;20037;-57
2023/01/27 11:54:12;;;;;;;5.55;5.05;;;;;;;3.89;96.04;102674.88;5031235;28;20040;-57
2023/01/27 11:56:40;;;;;;;5.65;5.15;;;;;;;3.94;95.05;102680.91;5032267;28;20079;-54
2023/01/27 11:59:10;;;;;;;6.45;5.75;;;;;;;3.99;96.23;102678.19;5030721;28;20029;-57
2023/01/27 12:01:47;;;;;;;5.82;5.20;;;;;;;4.03;95.32;102670.22;5030833;28;20017;-57
2023/01/27 12:04:18;;;;;;;6.07;5.40;;;;;;;4.08;95.59;102673.63;5027796;28;20108;-57